sensor_id;sensor_type;location;lat;lon;timestamp;temperature;humidity
66920;DHT22;53831;52.090;17.026;2022-11-20T00:00:49;9.00;59.10
66920;DHT22;53831;52.090;17.026;2022-11-20T00:01:50;9.00;59.00
66920;DHT22;53831;52.090;17.026;2022-11-20T00:02:50;9.00;58.90
66920;DHT22;53831;52.090;17.026;2022-11-20T00:03:52;9.00;59.00
66920;DHT22;53831;52.090;17.026;2022-11-20T00:04:53;9.00;59.00
66920;DHT22;53831;52.090;17.026;2022-11-20T00:05:58;9.00;59.00
66920;DHT22;53831;52.090;17.026;2022-11-20T00:06:59;9.00;59.10
66920;DHT22;53831;52.090;17.026;2022-11-20T00:08:00;9.00;59.00
66920;DHT22;53831;52.090;17.026;2022-11-20T00:09:00;9.00;58.90
66920;DHT22;53831;52.090;17.026;2022-11-20T00:10:01;9.10;58.90
66920;DHT22;53831;52.090;17.026;2022-11-20T00:11:10;9.00;58.90
66920;DHT22;53831;52.090;17.026;2022-11-20T00:12:11;9.00;58.80
66920;DHT22;53831;52.090;17.026;2022-11-20T00:13:12;9.00;58.90
66920;DHT22;53831;52.090;17.026;2022-11-20T00:14:12;9.10;58.70
66920;DHT22;53831;52.090;17.026;2022-11-20T00:15:13;9.10;58.70
66920;DHT22;53831;52.090;17.026;2022-11-20T00:16:16;9.10;59.70
66920;DHT22;53831;52.090;17.026;2022-11-20T00:17:17;9.10;58.60
66920;DHT22;53831;52.090;17.026;2022-11-20T00:18:17;9.10;58.60
66920;DHT22;53831;52.090;17.026;2022-11-20T00:19:18;9.20;58.60
66920;DHT22;53831;52.090;17.026;2022-11-20T00:20:18;9.20;58.50
66920;DHT22;53831;52.090;17.026;2022-11-20T00:21:22;9.20;58.40
66920;DHT22;53831;52.090;17.026;2022-11-20T00:22:22;9.20;58.40
66920;DHT22;53831;52.090;17.026;2022-11-20T00:23:23;9.20;58.30
66920;DHT22;53831;52.090;17.026;2022-11-20T00:24:24;9.20;58.30
66920;DHT22;53831;52.090;17.026;2022-11-20T00:25:24;9.20;58.30
66920;DHT22;53831;52.090;17.026;2022-11-20T00:26:26;9.30;58.30
66920;DHT22;53831;52.090;17.026;2022-11-20T00:27:27;9.20;58.10
66920;DHT22;53831;52.090;17.026;2022-11-20T00:28:28;9.20;58.20
66920;DHT22;53831;52.090;17.026;2022-11-20T00:29:29;9.30;58.10
66920;DHT22;53831;52.090;17.026;2022-11-20T00:30:29;9.20;58.10
66920;DHT22;53831;52.090;17.026;2022-11-20T00:31:30;9.30;58.10
66920;DHT22;53831;52.090;17.026;2022-11-20T00:32:32;9.20;58.10
66920;DHT22;53831;52.090;17.026;2022-11-20T00:33:33;9.30;58.10
66920;DHT22;53831;52.090;17.026;2022-11-20T00:34:33;9.20;58.10
66920;DHT22;53831;52.090;17.026;2022-11-20T00:35:34;9.30;58.10
66920;DHT22;53831;52.090;17.026;2022-11-20T00:36:34;9.30;58.10
66920;DHT22;53831;52.090;17.026;2022-11-20T00:37:35;9.30;58.10
66920;DHT22;53831;52.090;17.026;2022-11-20T00:38:36;9.20;58.10
66920;DHT22;53831;52.090;17.026;2022-11-20T00:39:36;9.30;58.10
66920;DHT22;53831;52.090;17.026;2022-11-20T00:40:37;9.30;58.10
66920;DHT22;53831;52.090;17.026;2022-11-20T00:41:38;9.30;58.10
66920;DHT22;53831;52.090;17.026;2022-11-20T00:42:38;9.30;58.20
66920;DHT22;53831;52.090;17.026;2022-11-20T00:43:39;9.20;58.10
66920;DHT22;53831;52.090;17.026;2022-11-20T00:44:39;9.30;58.00
66920;DHT22;53831;52.090;17.026;2022-11-20T00:45:40;9.30;58.10
66920;DHT22;53831;52.090;17.026;2022-11-20T00:46:40;9.30;58.10
66920;DHT22;53831;52.090;17.026;2022-11-20T00:47:41;9.30;58.10
66920;DHT22;53831;52.090;17.026;2022-11-20T00:48:42;9.30;58.10
66920;DHT22;53831;52.090;17.026;2022-11-20T00:49:43;9.30;58.00
66920;DHT22;53831;52.090;17.026;2022-11-20T00:50:44;9.30;58.10
66920;DHT22;53831;52.090;17.026;2022-11-20T00:51:44;9.20;58.10
66920;DHT22;53831;52.090;17.026;2022-11-20T00:52:45;9.30;58.10
66920;DHT22;53831;52.090;17.026;2022-11-20T00:53:46;9.20;58.00
66920;DHT22;53831;52.090;17.026;2022-11-20T00:54:46;9.30;58.00
66920;DHT22;53831;52.090;17.026;2022-11-20T00:56:01;9.20;58.10
66920;DHT22;53831;52.090;17.026;2022-11-20T00:57:01;9.20;58.10
66920;DHT22;53831;52.090;17.026;2022-11-20T00:58:02;9.20;58.00
66920;DHT22;53831;52.090;17.026;2022-11-20T00:59:03;9.20;57.90
66920;DHT22;53831;52.090;17.026;2022-11-20T01:00:04;9.20;58.00
66920;DHT22;53831;52.090;17.026;2022-11-20T01:01:09;9.20;58.00
66920;DHT22;53831;52.090;17.026;2022-11-20T01:02:10;9.20;58.00
66920;DHT22;53831;52.090;17.026;2022-11-20T01:03:11;9.20;58.00
66920;DHT22;53831;52.090;17.026;2022-11-20T01:04:12;9.20;58.10
66920;DHT22;53831;52.090;17.026;2022-11-20T01:05:12;9.20;58.10
66920;DHT22;53831;52.090;17.026;2022-11-20T01:07:23;9.20;58.30
66920;DHT22;53831;52.090;17.026;2022-11-20T01:08:24;9.20;58.40
66920;DHT22;53831;52.090;17.026;2022-11-20T01:09:24;9.10;58.20
66920;DHT22;53831;52.090;17.026;2022-11-20T01:10:25;9.20;58.50
66920;DHT22;53831;52.090;17.026;2022-11-20T01:11:31;9.10;58.30
66920;DHT22;53831;52.090;17.026;2022-11-20T01:12:32;9.10;58.40
66920;DHT22;53831;52.090;17.026;2022-11-20T01:13:33;9.10;58.50
66920;DHT22;53831;52.090;17.026;2022-11-20T01:14:41;9.10;58.50
66920;DHT22;53831;52.090;17.026;2022-11-20T01:15:41;9.10;58.50
66920;DHT22;53831;52.090;17.026;2022-11-20T01:16:45;9.10;58.50
66920;DHT22;53831;52.090;17.026;2022-11-20T01:17:46;9.10;58.60
66920;DHT22;53831;52.090;17.026;2022-11-20T01:18:49;9.10;58.50
66920;DHT22;53831;52.090;17.026;2022-11-20T01:19:50;9.10;58.60
66920;DHT22;53831;52.090;17.026;2022-11-20T01:20:51;9.00;58.50
66920;DHT22;53831;52.090;17.026;2022-11-20T01:21:54;9.00;58.60
66920;DHT22;53831;52.090;17.026;2022-11-20T01:22:54;9.00;58.60
66920;DHT22;53831;52.090;17.026;2022-11-20T01:23:56;9.00;58.60
66920;DHT22;53831;52.090;17.026;2022-11-20T01:24:56;9.00;58.60
66920;DHT22;53831;52.090;17.026;2022-11-20T01:25:59;9.00;58.70
66920;DHT22;53831;52.090;17.026;2022-11-20T01:27:00;9.00;58.60
66920;DHT22;53831;52.090;17.026;2022-11-20T01:28:01;9.10;58.60
66920;DHT22;53831;52.090;17.026;2022-11-20T01:29:03;9.00;58.60
66920;DHT22;53831;52.090;17.026;2022-11-20T01:30:04;9.00;58.60
66920;DHT22;53831;52.090;17.026;2022-11-20T01:32:12;9.00;59.70
66920;DHT22;53831;52.090;17.026;2022-11-20T01:33:12;9.00;58.70
66920;DHT22;53831;52.090;17.026;2022-11-20T01:34:16;9.00;58.60
66920;DHT22;53831;52.090;17.026;2022-11-20T01:35:17;9.00;58.80
66920;DHT22;53831;52.090;17.026;2022-11-20T01:36:19;9.00;58.70
66920;DHT22;53831;52.090;17.026;2022-11-20T01:37:20;9.00;58.80
66920;DHT22;53831;52.090;17.026;2022-11-20T01:38:21;9.00;58.70
66920;DHT22;53831;52.090;17.026;2022-11-20T01:39:25;9.00;58.70
66920;DHT22;53831;52.090;17.026;2022-11-20T01:40:26;9.00;58.70
66920;DHT22;53831;52.090;17.026;2022-11-20T01:41:28;9.00;58.70
66920;DHT22;53831;52.090;17.026;2022-11-20T01:42:55;9.00;60.10
66920;DHT22;53831;52.090;17.026;2022-11-20T01:44:20;9.00;58.80
66920;DHT22;53831;52.090;17.026;2022-11-20T01:45:59;9.00;58.80
66920;DHT22;53831;52.090;17.026;2022-11-20T01:47:02;9.00;58.90
66920;DHT22;53831;52.090;17.026;2022-11-20T01:48:05;9.00;58.90
66920;DHT22;53831;52.090;17.026;2022-11-20T01:49:11;9.00;58.90
66920;DHT22;53831;52.090;17.026;2022-11-20T01:50:19;9.00;58.80
66920;DHT22;53831;52.090;17.026;2022-11-20T01:52:42;9.00;58.80
66920;DHT22;53831;52.090;17.026;2022-11-20T01:53:44;9.00;58.80
66920;DHT22;53831;52.090;17.026;2022-11-20T01:55:00;9.00;58.80
66920;DHT22;53831;52.090;17.026;2022-11-20T01:56:03;9.00;58.90
66920;DHT22;53831;52.090;17.026;2022-11-20T01:57:07;9.00;58.90
66920;DHT22;53831;52.090;17.026;2022-11-20T01:58:09;9.00;59.00
66920;DHT22;53831;52.090;17.026;2022-11-20T01:59:11;9.00;58.90
66920;DHT22;53831;52.090;17.026;2022-11-20T02:00:15;9.00;59.00
66920;DHT22;53831;52.090;17.026;2022-11-20T02:01:17;9.00;59.00
66920;DHT22;53831;52.090;17.026;2022-11-20T02:02:19;9.00;58.90
66920;DHT22;53831;52.090;17.026;2022-11-20T02:03:20;9.00;59.00
66920;DHT22;53831;52.090;17.026;2022-11-20T02:04:21;9.00;58.90
66920;DHT22;53831;52.090;17.026;2022-11-20T02:05:28;9.00;59.20
66920;DHT22;53831;52.090;17.026;2022-11-20T02:06:35;9.00;59.00
66920;DHT22;53831;52.090;17.026;2022-11-20T02:07:36;9.00;59.00
66920;DHT22;53831;52.090;17.026;2022-11-20T02:08:38;8.90;58.90
66920;DHT22;53831;52.090;17.026;2022-11-20T02:09:39;9.00;59.00
66920;DHT22;53831;52.090;17.026;2022-11-20T02:10:39;9.00;60.10
66920;DHT22;53831;52.090;17.026;2022-11-20T02:11:40;8.90;59.10
66920;DHT22;53831;52.090;17.026;2022-11-20T02:12:40;8.90;59.00
66920;DHT22;53831;52.090;17.026;2022-11-20T02:14:00;8.90;59.00
66920;DHT22;53831;52.090;17.026;2022-11-20T02:15:01;9.00;59.10
66920;DHT22;53831;52.090;17.026;2022-11-20T02:16:02;9.00;59.00
66920;DHT22;53831;52.090;17.026;2022-11-20T02:17:03;9.00;58.90
66920;DHT22;53831;52.090;17.026;2022-11-20T02:18:05;9.00;59.20
66920;DHT22;53831;52.090;17.026;2022-11-20T02:19:11;9.00;59.00
66920;DHT22;53831;52.090;17.026;2022-11-20T02:20:15;9.00;59.00
66920;DHT22;53831;52.090;17.026;2022-11-20T02:21:21;8.90;59.10
66920;DHT22;53831;52.090;17.026;2022-11-20T02:22:35;8.90;59.10
66920;DHT22;53831;52.090;17.026;2022-11-20T02:24:45;9.00;59.00
66920;DHT22;53831;52.090;17.026;2022-11-20T02:25:47;8.90;59.00
66920;DHT22;53831;52.090;17.026;2022-11-20T02:26:55;9.00;59.10
66920;DHT22;53831;52.090;17.026;2022-11-20T02:27:57;9.00;59.00
66920;DHT22;53831;52.090;17.026;2022-11-20T02:28:59;9.00;59.00
66920;DHT22;53831;52.090;17.026;2022-11-20T02:30:05;9.00;58.90
66920;DHT22;53831;52.090;17.026;2022-11-20T02:31:11;8.90;58.90
66920;DHT22;53831;52.090;17.026;2022-11-20T02:32:29;8.90;59.00
66920;DHT22;53831;52.090;17.026;2022-11-20T02:33:30;8.90;59.00
66920;DHT22;53831;52.090;17.026;2022-11-20T02:34:31;8.90;59.10
66920;DHT22;53831;52.090;17.026;2022-11-20T02:36:33;8.90;59.10
66920;DHT22;53831;52.090;17.026;2022-11-20T02:37:37;8.90;59.10
66920;DHT22;53831;52.090;17.026;2022-11-20T02:38:39;8.90;59.10
66920;DHT22;53831;52.090;17.026;2022-11-20T02:39:40;8.90;59.10
66920;DHT22;53831;52.090;17.026;2022-11-20T02:40:42;8.90;59.00
66920;DHT22;53831;52.090;17.026;2022-11-20T02:41:42;8.90;59.00
66920;DHT22;53831;52.090;17.026;2022-11-20T02:42:43;8.90;59.20
66920;DHT22;53831;52.090;17.026;2022-11-20T02:43:44;8.90;59.00
66920;DHT22;53831;52.090;17.026;2022-11-20T02:44:44;8.90;59.10
66920;DHT22;53831;52.090;17.026;2022-11-20T02:45:45;8.90;59.10
66920;DHT22;53831;52.090;17.026;2022-11-20T02:46:46;8.90;59.00
66920;DHT22;53831;52.090;17.026;2022-11-20T02:47:46;8.90;59.00
66920;DHT22;53831;52.090;17.026;2022-11-20T02:48:47;9.00;59.10
66920;DHT22;53831;52.090;17.026;2022-11-20T02:49:48;8.90;59.00
66920;DHT22;53831;52.090;17.026;2022-11-20T02:50:48;8.90;59.00
66920;DHT22;53831;52.090;17.026;2022-11-20T02:51:49;8.90;59.00
66920;DHT22;53831;52.090;17.026;2022-11-20T02:52:49;8.90;59.00
66920;DHT22;53831;52.090;17.026;2022-11-20T02:53:50;8.90;59.00
66920;DHT22;53831;52.090;17.026;2022-11-20T02:54:51;8.90;59.00
66920;DHT22;53831;52.090;17.026;2022-11-20T02:55:51;8.90;59.10
66920;DHT22;53831;52.090;17.026;2022-11-20T02:56:52;8.90;59.00
66920;DHT22;53831;52.090;17.026;2022-11-20T02:57:53;8.90;59.10
66920;DHT22;53831;52.090;17.026;2022-11-20T02:58:54;8.90;59.00
66920;DHT22;53831;52.090;17.026;2022-11-20T02:59:55;8.90;59.00
66920;DHT22;53831;52.090;17.026;2022-11-20T03:00:56;8.90;59.00
66920;DHT22;53831;52.090;17.026;2022-11-20T03:01:57;8.90;59.10
66920;DHT22;53831;52.090;17.026;2022-11-20T03:02:58;8.90;59.10
66920;DHT22;53831;52.090;17.026;2022-11-20T03:03:58;8.90;59.10
66920;DHT22;53831;52.090;17.026;2022-11-20T03:04:59;8.90;59.00
66920;DHT22;53831;52.090;17.026;2022-11-20T03:06:00;9.00;59.10
66920;DHT22;53831;52.090;17.026;2022-11-20T03:07:00;8.90;59.00
66920;DHT22;53831;52.090;17.026;2022-11-20T03:08:01;8.90;58.90
66920;DHT22;53831;52.090;17.026;2022-11-20T03:09:02;8.90;59.00
66920;DHT22;53831;52.090;17.026;2022-11-20T03:10:03;8.90;59.00
66920;DHT22;53831;52.090;17.026;2022-11-20T03:11:06;8.90;59.00
66920;DHT22;53831;52.090;17.026;2022-11-20T03:12:07;8.90;59.00
66920;DHT22;53831;52.090;17.026;2022-11-20T03:13:08;8.90;59.00
66920;DHT22;53831;52.090;17.026;2022-11-20T03:14:08;8.90;59.00
66920;DHT22;53831;52.090;17.026;2022-11-20T03:15:09;8.90;59.10
66920;DHT22;53831;52.090;17.026;2022-11-20T03:16:23;8.90;59.00
66920;DHT22;53831;52.090;17.026;2022-11-20T03:17:24;8.90;59.10
66920;DHT22;53831;52.090;17.026;2022-11-20T03:18:27;8.90;59.10
66920;DHT22;53831;52.090;17.026;2022-11-20T03:19:28;8.90;59.10
66920;DHT22;53831;52.090;17.026;2022-11-20T03:20:29;8.90;59.10
66920;DHT22;53831;52.090;17.026;2022-11-20T03:21:30;8.90;59.10
66920;DHT22;53831;52.090;17.026;2022-11-20T03:22:30;8.90;59.00
66920;DHT22;53831;52.090;17.026;2022-11-20T03:23:32;8.90;59.00
66920;DHT22;53831;52.090;17.026;2022-11-20T03:24:33;8.90;59.00
66920;DHT22;53831;52.090;17.026;2022-11-20T03:25:33;8.90;59.00
66920;DHT22;53831;52.090;17.026;2022-11-20T03:26:34;8.90;58.90
66920;DHT22;53831;52.090;17.026;2022-11-20T03:27:34;8.90;59.10
66920;DHT22;53831;52.090;17.026;2022-11-20T03:28:35;8.90;59.00
66920;DHT22;53831;52.090;17.026;2022-11-20T03:29:36;8.90;59.10
66920;DHT22;53831;52.090;17.026;2022-11-20T03:30:36;8.90;59.10
66920;DHT22;53831;52.090;17.026;2022-11-20T03:31:39;8.90;59.10
66920;DHT22;53831;52.090;17.026;2022-11-20T03:32:40;8.90;59.00
66920;DHT22;53831;52.090;17.026;2022-11-20T03:33:42;8.90;59.00
66920;DHT22;53831;52.090;17.026;2022-11-20T03:34:43;8.90;59.20
66920;DHT22;53831;52.090;17.026;2022-11-20T03:35:43;8.90;59.00
66920;DHT22;53831;52.090;17.026;2022-11-20T03:36:44;8.90;59.10
66920;DHT22;53831;52.090;17.026;2022-11-20T03:37:44;8.90;60.20
66920;DHT22;53831;52.090;17.026;2022-11-20T03:38:47;8.90;59.00
66920;DHT22;53831;52.090;17.026;2022-11-20T03:39:47;8.90;59.10
66920;DHT22;53831;52.090;17.026;2022-11-20T03:40:48;8.90;59.10
66920;DHT22;53831;52.090;17.026;2022-11-20T03:41:49;8.90;59.00
66920;DHT22;53831;52.090;17.026;2022-11-20T03:42:49;8.90;59.00
66920;DHT22;53831;52.090;17.026;2022-11-20T03:43:52;8.90;58.90
66920;DHT22;53831;52.090;17.026;2022-11-20T03:44:54;8.90;58.90
66920;DHT22;53831;52.090;17.026;2022-11-20T03:45:54;8.90;59.00
66920;DHT22;53831;52.090;17.026;2022-11-20T03:46:55;8.90;58.80
66920;DHT22;53831;52.090;17.026;2022-11-20T03:47:55;8.90;59.00
66920;DHT22;53831;52.090;17.026;2022-11-20T03:48:56;8.90;59.00
66920;DHT22;53831;52.090;17.026;2022-11-20T03:49:57;9.00;58.90
66920;DHT22;53831;52.090;17.026;2022-11-20T03:51:15;8.90;58.90
66920;DHT22;53831;52.090;17.026;2022-11-20T03:52:15;8.90;59.00
66920;DHT22;53831;52.090;17.026;2022-11-20T03:53:16;8.90;59.00
66920;DHT22;53831;52.090;17.026;2022-11-20T03:54:17;8.90;59.00
66920;DHT22;53831;52.090;17.026;2022-11-20T03:55:18;8.90;59.00
66920;DHT22;53831;52.090;17.026;2022-11-20T03:56:20;8.90;59.00
66920;DHT22;53831;52.090;17.026;2022-11-20T03:57:22;8.90;59.00
66920;DHT22;53831;52.090;17.026;2022-11-20T03:58:23;8.90;59.00
66920;DHT22;53831;52.090;17.026;2022-11-20T03:59:23;8.90;59.00
66920;DHT22;53831;52.090;17.026;2022-11-20T04:00:24;8.90;59.00
66920;DHT22;53831;52.090;17.026;2022-11-20T04:01:29;8.90;59.00
66920;DHT22;53831;52.090;17.026;2022-11-20T04:02:30;8.90;59.10
66920;DHT22;53831;52.090;17.026;2022-11-20T04:03:31;8.90;58.90
66920;DHT22;53831;52.090;17.026;2022-11-20T04:04:32;8.90;58.90
66920;DHT22;53831;52.090;17.026;2022-11-20T04:05:33;8.90;58.90
66920;DHT22;53831;52.090;17.026;2022-11-20T04:06:37;8.90;58.90
66920;DHT22;53831;52.090;17.026;2022-11-20T04:07:37;8.90;59.00
66920;DHT22;53831;52.090;17.026;2022-11-20T04:08:38;8.90;59.10
66920;DHT22;53831;52.090;17.026;2022-11-20T04:09:39;8.90;59.10
66920;DHT22;53831;52.090;17.026;2022-11-20T04:10:40;8.90;58.90
66920;DHT22;53831;52.090;17.026;2022-11-20T04:11:40;8.90;58.90
66920;DHT22;53831;52.090;17.026;2022-11-20T04:12:41;8.90;58.90
66920;DHT22;53831;52.090;17.026;2022-11-20T04:13:45;8.90;59.00
66920;DHT22;53831;52.090;17.026;2022-11-20T04:14:46;8.90;59.00
66920;DHT22;53831;52.090;17.026;2022-11-20T04:15:47;8.90;59.10
66920;DHT22;53831;52.090;17.026;2022-11-20T04:16:47;8.90;59.00
66920;DHT22;53831;52.090;17.026;2022-11-20T04:17:48;8.90;59.10
66920;DHT22;53831;52.090;17.026;2022-11-20T04:18:57;8.90;59.00
66920;DHT22;53831;52.090;17.026;2022-11-20T04:19:57;8.90;59.00
66920;DHT22;53831;52.090;17.026;2022-11-20T04:20:59;8.90;59.20
66920;DHT22;53831;52.090;17.026;2022-11-20T04:21:59;8.90;59.00
66920;DHT22;53831;52.090;17.026;2022-11-20T04:23:00;8.90;59.00
66920;DHT22;53831;52.090;17.026;2022-11-20T04:24:01;8.90;59.00
66920;DHT22;53831;52.090;17.026;2022-11-20T04:25:02;8.90;59.20
66920;DHT22;53831;52.090;17.026;2022-11-20T04:26:04;8.90;59.20
66920;DHT22;53831;52.090;17.026;2022-11-20T04:27:05;8.90;59.00
66920;DHT22;53831;52.090;17.026;2022-11-20T04:28:05;8.90;59.10
66920;DHT22;53831;52.090;17.026;2022-11-20T04:29:06;8.90;58.90
66920;DHT22;53831;52.090;17.026;2022-11-20T04:30:07;8.90;59.00
66920;DHT22;53831;52.090;17.026;2022-11-20T04:31:13;8.90;59.00
66920;DHT22;53831;52.090;17.026;2022-11-20T04:32:14;8.90;59.00
66920;DHT22;53831;52.090;17.026;2022-11-20T04:33:15;8.90;58.90
66920;DHT22;53831;52.090;17.026;2022-11-20T04:34:15;8.90;58.90
66920;DHT22;53831;52.090;17.026;2022-11-20T04:35:16;8.90;59.00
66920;DHT22;53831;52.090;17.026;2022-11-20T04:36:19;8.90;59.00
66920;DHT22;53831;52.090;17.026;2022-11-20T04:37:20;8.90;59.10
66920;DHT22;53831;52.090;17.026;2022-11-20T04:38:21;8.90;59.10
66920;DHT22;53831;52.090;17.026;2022-11-20T04:39:21;8.90;59.10
66920;DHT22;53831;52.090;17.026;2022-11-20T04:40:22;8.90;59.10
66920;DHT22;53831;52.090;17.026;2022-11-20T04:41:31;8.90;59.00
66920;DHT22;53831;52.090;17.026;2022-11-20T04:42:32;8.90;60.10
66920;DHT22;53831;52.090;17.026;2022-11-20T04:43:33;8.90;59.10
66920;DHT22;53831;52.090;17.026;2022-11-20T04:44:34;8.90;59.00
66920;DHT22;53831;52.090;17.026;2022-11-20T04:45:35;8.90;59.10
66920;DHT22;53831;52.090;17.026;2022-11-20T04:46:39;8.90;59.00
66920;DHT22;53831;52.090;17.026;2022-11-20T04:47:39;8.90;59.00
66920;DHT22;53831;52.090;17.026;2022-11-20T04:48:40;8.90;59.10
66920;DHT22;53831;52.090;17.026;2022-11-20T04:49:41;8.90;58.90
66920;DHT22;53831;52.090;17.026;2022-11-20T04:50:41;8.90;58.90
66920;DHT22;53831;52.090;17.026;2022-11-20T04:51:42;8.90;60.00
66920;DHT22;53831;52.090;17.026;2022-11-20T04:52:43;8.90;58.90
66920;DHT22;53831;52.090;17.026;2022-11-20T04:53:43;8.90;59.00
66920;DHT22;53831;52.090;17.026;2022-11-20T04:54:44;8.90;58.90
66920;DHT22;53831;52.090;17.026;2022-11-20T04:55:45;8.90;59.10
66920;DHT22;53831;52.090;17.026;2022-11-20T04:56:49;8.90;59.10
66920;DHT22;53831;52.090;17.026;2022-11-20T04:57:50;8.90;59.00
66920;DHT22;53831;52.090;17.026;2022-11-20T04:58:51;8.90;59.00
66920;DHT22;53831;52.090;17.026;2022-11-20T04:59:52;8.90;59.10
66920;DHT22;53831;52.090;17.026;2022-11-20T05:00:53;8.90;59.00
66920;DHT22;53831;52.090;17.026;2022-11-20T05:01:53;8.90;59.00
66920;DHT22;53831;52.090;17.026;2022-11-20T05:02:54;8.90;59.10
66920;DHT22;53831;52.090;17.026;2022-11-20T05:03:54;8.90;59.00
66920;DHT22;53831;52.090;17.026;2022-11-20T05:04:55;8.90;59.10
66920;DHT22;53831;52.090;17.026;2022-11-20T05:05:56;8.90;59.00
66920;DHT22;53831;52.090;17.026;2022-11-20T05:06:57;8.90;59.00
66920;DHT22;53831;52.090;17.026;2022-11-20T05:07:58;8.90;59.00
66920;DHT22;53831;52.090;17.026;2022-11-20T05:08:58;8.90;59.00
66920;DHT22;53831;52.090;17.026;2022-11-20T05:09:59;8.90;59.00
66920;DHT22;53831;52.090;17.026;2022-11-20T05:11:05;8.90;59.00
66920;DHT22;53831;52.090;17.026;2022-11-20T05:12:09;8.90;58.90
66920;DHT22;53831;52.090;17.026;2022-11-20T05:13:10;8.90;59.00
66920;DHT22;53831;52.090;17.026;2022-11-20T05:14:10;8.90;59.00
66920;DHT22;53831;52.090;17.026;2022-11-20T05:15:11;8.90;59.00
66920;DHT22;53831;52.090;17.026;2022-11-20T05:16:15;8.90;59.00
66920;DHT22;53831;52.090;17.026;2022-11-20T05:17:15;8.90;59.00
66920;DHT22;53831;52.090;17.026;2022-11-20T05:18:16;8.90;59.00
66920;DHT22;53831;52.090;17.026;2022-11-20T05:19:17;8.90;59.00
66920;DHT22;53831;52.090;17.026;2022-11-20T05:20:17;8.90;59.00
66920;DHT22;53831;52.090;17.026;2022-11-20T05:21:18;8.90;59.10
66920;DHT22;53831;52.090;17.026;2022-11-20T05:22:19;8.90;59.10
66920;DHT22;53831;52.090;17.026;2022-11-20T05:23:19;8.90;59.10
66920;DHT22;53831;52.090;17.026;2022-11-20T05:24:20;8.90;59.20
66920;DHT22;53831;52.090;17.026;2022-11-20T05:25:21;8.90;59.10
66920;DHT22;53831;52.090;17.026;2022-11-20T05:26:22;8.90;59.00
66920;DHT22;53831;52.090;17.026;2022-11-20T05:27:23;8.90;59.00
66920;DHT22;53831;52.090;17.026;2022-11-20T05:28:24;8.90;59.20
66920;DHT22;53831;52.090;17.026;2022-11-20T05:29:25;8.90;59.10
66920;DHT22;53831;52.090;17.026;2022-11-20T05:30:26;8.90;60.30
66920;DHT22;53831;52.090;17.026;2022-11-20T05:31:26;8.90;59.10
66920;DHT22;53831;52.090;17.026;2022-11-20T05:32:27;8.90;59.00
66920;DHT22;53831;52.090;17.026;2022-11-20T05:33:27;8.90;59.00
66920;DHT22;53831;52.090;17.026;2022-11-20T05:34:28;8.90;59.00
66920;DHT22;53831;52.090;17.026;2022-11-20T05:35:29;8.90;59.10
66920;DHT22;53831;52.090;17.026;2022-11-20T05:36:30;8.90;59.00
66920;DHT22;53831;52.090;17.026;2022-11-20T05:37:30;8.90;59.00
66920;DHT22;53831;52.090;17.026;2022-11-20T05:38:31;8.90;59.00
66920;DHT22;53831;52.090;17.026;2022-11-20T05:39:32;8.90;59.10
66920;DHT22;53831;52.090;17.026;2022-11-20T05:40:33;8.90;59.00
66920;DHT22;53831;52.090;17.026;2022-11-20T05:41:33;8.90;59.10
66920;DHT22;53831;52.090;17.026;2022-11-20T05:42:34;8.90;59.00
66920;DHT22;53831;52.090;17.026;2022-11-20T05:43:37;8.90;59.00
66920;DHT22;53831;52.090;17.026;2022-11-20T05:44:38;8.90;59.00
66920;DHT22;53831;52.090;17.026;2022-11-20T05:45:39;8.90;59.00
66920;DHT22;53831;52.090;17.026;2022-11-20T05:46:39;8.90;59.10
66920;DHT22;53831;52.090;17.026;2022-11-20T05:47:40;8.90;59.10
66920;DHT22;53831;52.090;17.026;2022-11-20T05:48:42;8.90;58.90
66920;DHT22;53831;52.090;17.026;2022-11-20T05:49:43;8.90;59.00
66920;DHT22;53831;52.090;17.026;2022-11-20T05:50:43;8.90;59.00
66920;DHT22;53831;52.090;17.026;2022-11-20T05:51:44;8.90;59.00
66920;DHT22;53831;52.090;17.026;2022-11-20T05:52:44;8.90;59.10
66920;DHT22;53831;52.090;17.026;2022-11-20T05:53:45;8.90;59.00
66920;DHT22;53831;52.090;17.026;2022-11-20T05:54:46;8.90;59.00
66920;DHT22;53831;52.090;17.026;2022-11-20T05:55:46;8.90;59.10
66920;DHT22;53831;52.090;17.026;2022-11-20T05:56:55;8.90;59.10
66920;DHT22;53831;52.090;17.026;2022-11-20T05:57:56;8.90;59.00
66920;DHT22;53831;52.090;17.026;2022-11-20T05:58:57;8.90;59.00
66920;DHT22;53831;52.090;17.026;2022-11-20T05:59:57;8.90;59.10
66920;DHT22;53831;52.090;17.026;2022-11-20T06:01:08;8.90;59.10
66920;DHT22;53831;52.090;17.026;2022-11-20T06:02:09;8.90;59.00
66920;DHT22;53831;52.090;17.026;2022-11-20T06:03:09;8.90;59.00
66920;DHT22;53831;52.090;17.026;2022-11-20T06:04:10;8.90;58.90
66920;DHT22;53831;52.090;17.026;2022-11-20T06:05:11;8.90;58.80
66920;DHT22;53831;52.090;17.026;2022-11-20T06:06:12;8.90;59.00
66920;DHT22;53831;52.090;17.026;2022-11-20T06:07:13;8.90;59.00
66920;DHT22;53831;52.090;17.026;2022-11-20T06:08:13;8.90;59.00
66920;DHT22;53831;52.090;17.026;2022-11-20T06:09:14;8.90;58.90
66920;DHT22;53831;52.090;17.026;2022-11-20T06:10:15;8.90;59.00
66920;DHT22;53831;52.090;17.026;2022-11-20T06:11:16;8.90;59.00
66920;DHT22;53831;52.090;17.026;2022-11-20T06:12:16;8.90;59.00
66920;DHT22;53831;52.090;17.026;2022-11-20T06:13:17;8.90;59.00
66920;DHT22;53831;52.090;17.026;2022-11-20T06:14:18;8.90;59.00
66920;DHT22;53831;52.090;17.026;2022-11-20T06:15:18;8.90;59.00
66920;DHT22;53831;52.090;17.026;2022-11-20T06:16:19;8.90;58.90
66920;DHT22;53831;52.090;17.026;2022-11-20T06:17:20;8.90;59.00
66920;DHT22;53831;52.090;17.026;2022-11-20T06:18:21;8.90;59.10
66920;DHT22;53831;52.090;17.026;2022-11-20T06:19:21;8.90;59.00
66920;DHT22;53831;52.090;17.026;2022-11-20T06:20:22;8.90;58.90
66920;DHT22;53831;52.090;17.026;2022-11-20T06:21:23;8.90;59.00
66920;DHT22;53831;52.090;17.026;2022-11-20T06:22:24;8.90;58.90
66920;DHT22;53831;52.090;17.026;2022-11-20T06:23:24;8.90;59.10
66920;DHT22;53831;52.090;17.026;2022-11-20T06:24:25;8.90;59.00
66920;DHT22;53831;52.090;17.026;2022-11-20T06:25:25;8.90;59.00
66920;DHT22;53831;52.090;17.026;2022-11-20T06:26:27;8.90;59.10
66920;DHT22;53831;52.090;17.026;2022-11-20T06:27:28;8.90;59.20
66920;DHT22;53831;52.090;17.026;2022-11-20T06:28:28;8.90;59.10
66920;DHT22;53831;52.090;17.026;2022-11-20T06:29:29;8.90;59.00
66920;DHT22;53831;52.090;17.026;2022-11-20T06:30:30;8.90;59.10
66920;DHT22;53831;52.090;17.026;2022-11-20T06:31:30;8.90;59.00
66920;DHT22;53831;52.090;17.026;2022-11-20T06:32:35;8.90;59.10
66920;DHT22;53831;52.090;17.026;2022-11-20T06:33:35;8.90;59.10
66920;DHT22;53831;52.090;17.026;2022-11-20T06:34:36;8.90;58.90
66920;DHT22;53831;52.090;17.026;2022-11-20T06:35:37;8.90;59.00
66920;DHT22;53831;52.090;17.026;2022-11-20T06:36:37;8.90;58.80